createdAt,value
2022-11-06T00:00:46.456Z,11.20
2022-11-06T00:03:48.959Z,8.55
2022-11-06T00:06:50.736Z,7.47
2022-11-06T00:12:55.558Z,7.20
2022-11-06T00:16:03.519Z,7.68
2022-11-06T00:19:06.414Z,7.93
2022-11-06T00:22:08.861Z,14.18
2022-11-06T00:25:11.669Z,9.93
2022-11-06T00:28:14.539Z,9.30
2022-11-06T00:31:24.092Z,11.93
2022-11-06T00:34:26.602Z,10.70
2022-11-06T00:37:29.141Z,13.15
2022-11-06T00:40:31.662Z,9.60
2022-11-06T00:43:35.754Z,13.32
2022-11-06T00:46:39.593Z,11.55
2022-11-06T00:49:42.153Z,13.93
2022-11-06T00:52:44.873Z,20.08
2022-11-06T00:55:47.352Z,15.13
2022-11-06T00:58:49.844Z,18.25
2022-11-06T01:01:53.721Z,11.60
2022-11-06T01:04:56.273Z,15.32
2022-11-06T01:07:58.723Z,12.02
2022-11-06T01:11:07.439Z,13.85
2022-11-06T01:14:12.754Z,14.57
2022-11-06T01:17:16.569Z,15.00
2022-11-06T01:20:19.161Z,13.48
2022-11-06T01:23:21.703Z,14.07
2022-11-06T01:26:37.203Z,16.42
2022-11-06T01:29:41.002Z,12.65
2022-11-06T01:32:44.785Z,13.00
2022-11-06T01:35:48.327Z,9.57
2022-11-06T01:38:53.367Z,14.63
2022-11-06T01:41:56.282Z,15.52
2022-11-06T01:45:34.444Z,15.07
2022-11-06T01:48:40.564Z,18.70
2022-11-06T01:51:48.419Z,14.05
2022-11-06T01:55:01.689Z,16.67
2022-11-06T01:58:06.687Z,15.77
2022-11-06T02:01:09.342Z,13.43
2022-11-06T02:04:16.778Z,15.63
2022-11-06T02:07:20.788Z,17.63
2022-11-06T02:10:23.543Z,17.00
2022-11-06T02:13:38.536Z,15.00
2022-11-06T02:16:47.738Z,13.60
2022-11-06T02:20:02.245Z,18.98
2022-11-06T02:23:26.217Z,12.02
2022-11-06T02:26:47.062Z,18.08
2022-11-06T02:29:57.445Z,17.25
2022-11-06T02:33:03.997Z,15.00
2022-11-06T02:36:10.909Z,15.18
2022-11-06T02:39:17.739Z,16.77
2022-11-06T02:42:21.937Z,13.80
2022-11-06T02:45:26.754Z,17.45
2022-11-06T02:48:34.984Z,17.02
2022-11-06T02:51:50.397Z,20.33
2022-11-06T02:54:58.956Z,12.68
2022-11-06T02:58:09.512Z,17.48
2022-11-06T03:01:19.089Z,19.00
2022-11-06T03:04:27.684Z,15.73
2022-11-06T03:07:36.367Z,16.05
2022-11-06T03:10:44.629Z,13.63
2022-11-06T03:13:55.206Z,20.05
2022-11-06T03:17:00.493Z,13.27
2022-11-06T03:20:11.223Z,20.50
2022-11-06T03:23:19.426Z,18.50
2022-11-06T03:26:27.890Z,13.80
2022-11-06T03:29:40.734Z,17.40
2022-11-06T03:32:50.081Z,15.38
2022-11-06T03:35:57.924Z,15.73
2022-11-06T03:39:04.038Z,14.88
2022-11-06T03:42:11.925Z,13.65
2022-11-06T03:45:19.092Z,13.13
2022-11-06T03:48:27.225Z,14.60
2022-11-06T03:51:37.493Z,16.90
2022-11-06T03:54:45.247Z,16.85
2022-11-06T03:57:53.514Z,15.98
2022-11-06T04:00:59.332Z,16.50
2022-11-06T04:04:06.888Z,16.02
2022-11-06T04:07:13.279Z,15.77
2022-11-06T04:10:33.614Z,22.92
2022-11-06T04:13:56.152Z,17.00
2022-11-06T04:17:03.142Z,18.25
2022-11-06T04:20:32.809Z,15.18
2022-11-06T04:23:44.945Z,18.35
2022-11-06T04:26:55.905Z,18.73
2022-11-06T04:30:06.295Z,14.15
2022-11-06T04:33:15.485Z,13.02
2022-11-06T04:36:27.193Z,18.50
2022-11-06T04:39:37.730Z,16.70
2022-11-06T04:42:49.074Z,16.42
2022-11-06T04:45:56.062Z,14.48
2022-11-06T04:49:02.820Z,17.83
2022-11-06T04:52:08.317Z,15.95
2022-11-06T04:55:10.830Z,15.68
2022-11-06T04:58:13.886Z,17.63
2022-11-06T05:01:16.623Z,15.50
2022-11-06T05:04:20.654Z,14.73
2022-11-06T05:07:23.209Z,15.18
2022-11-06T05:10:25.700Z,17.20
2022-11-06T05:13:28.166Z,15.02
2022-11-06T05:16:30.927Z,18.30
2022-11-06T05:19:34.723Z,20.67
2022-11-06T05:23:00.632Z,22.02
2022-11-06T05:26:03.242Z,17.33
2022-11-06T05:29:06.046Z,19.52
2022-11-06T05:32:08.498Z,16.67
2022-11-06T05:35:12.311Z,18.48
2022-11-06T05:38:15.158Z,21.83
2022-11-06T05:41:17.947Z,22.90
2022-11-06T05:44:20.436Z,19.15
2022-11-06T05:47:23.162Z,20.15
2022-11-06T05:50:27.441Z,16.63
2022-11-06T05:53:30.809Z,19.00
2022-11-06T05:56:33.262Z,17.98
2022-11-06T05:59:35.737Z,19.45
2022-11-06T06:02:39.105Z,18.05
2022-11-06T06:05:42.956Z,23.48
2022-11-06T06:08:45.412Z,16.13
2022-11-06T06:11:51.788Z,22.73
2022-11-06T06:14:54.657Z,21.13
2022-11-06T06:17:58.651Z,21.65
2022-11-06T06:21:02.583Z,21.10
2022-11-06T06:24:05.905Z,15.00
2022-11-06T06:27:08.746Z,21.75
2022-11-06T06:30:12.673Z,19.23
2022-11-06T06:33:15.165Z,22.60
2022-11-06T06:36:18.968Z,18.33
2022-11-06T06:39:21.817Z,18.05
2022-11-06T06:42:30.198Z,16.95
2022-11-06T06:45:33.674Z,22.17
2022-11-06T06:48:36.439Z,20.35
2022-11-06T06:51:40.324Z,21.38
2022-11-06T06:54:42.798Z,27.13
2022-11-06T06:57:45.266Z,17.20
2022-11-06T07:00:48.234Z,16.63
2022-11-06T07:03:50.900Z,18.58
2022-11-06T07:06:55.601Z,14.65
2022-11-06T07:09:58.072Z,17.08
2022-11-06T07:13:02.165Z,15.52
2022-11-06T07:16:06.708Z,17.40
2022-11-06T07:19:09.263Z,14.32
2022-11-06T07:22:13.075Z,16.17
2022-11-06T07:25:15.727Z,15.55
2022-11-06T07:28:18.537Z,16.92
2022-11-06T07:31:21.318Z,15.18
2022-11-06T07:34:23.838Z,13.77
2022-11-06T07:37:27.662Z,13.63
2022-11-06T07:40:30.119Z,16.45
2022-11-06T07:43:32.782Z,15.40
2022-11-06T07:46:35.420Z,14.20
2022-11-06T07:49:37.981Z,15.48
2022-11-06T07:52:41.849Z,16.95
2022-11-06T07:55:49.205Z,11.52
2022-11-06T07:58:51.679Z,14.20
2022-11-06T08:01:54.414Z,13.30
2022-11-06T08:04:56.995Z,17.08
2022-11-06T08:08:00.774Z,10.43
2022-11-06T08:11:03.998Z,13.48
2022-11-06T08:14:06.496Z,15.90
2022-11-06T08:17:09.177Z,14.38
2022-11-06T08:20:12.248Z,12.60
2022-11-06T08:23:16.022Z,15.73
2022-11-06T08:26:18.590Z,12.98
2022-11-06T08:29:21.061Z,13.50
2022-11-06T08:32:23.596Z,13.10
2022-11-06T08:35:26.093Z,13.60
2022-11-06T08:38:29.919Z,12.32
2022-11-06T08:41:32.377Z,14.43
2022-11-06T08:44:34.850Z,11.18
2022-11-06T08:47:37.315Z,12.10
2022-11-06T08:50:41.405Z,14.88
2022-11-06T08:53:45.315Z,12.07
2022-11-06T08:56:48.896Z,12.07
2022-11-06T08:59:51.330Z,13.63
2022-11-06T09:02:59.027Z,10.27
2022-11-06T09:06:01.604Z,14.35
2022-11-06T09:09:05.721Z,11.80
2022-11-06T09:12:09.011Z,13.02
2022-11-06T09:15:11.794Z,14.23
2022-11-06T09:18:14.363Z,11.77
2022-11-06T09:21:16.895Z,13.13
2022-11-06T09:24:37.180Z,9.80
2022-11-06T09:27:44.291Z,13.73
2022-11-06T09:30:46.839Z,11.38
2022-11-06T09:33:51.026Z,12.05
2022-11-06T09:36:53.542Z,10.45
2022-11-06T09:40:01.787Z,7.85
2022-11-06T09:43:27.344Z,9.80
2022-11-06T09:46:43.899Z,10.43
2022-11-06T09:49:50.810Z,11.57
2022-11-06T09:53:03.075Z,11.30
2022-11-06T09:56:13.891Z,7.80
2022-11-06T09:59:19.794Z,10.15
2022-11-06T10:02:31.856Z,9.80
2022-11-06T10:05:37.998Z,11.40
2022-11-06T10:08:43.830Z,12.07
2022-11-06T10:11:59.242Z,8.65
2022-11-06T10:15:08.534Z,9.75
2022-11-06T10:18:18.656Z,9.80
2022-11-06T10:21:24.884Z,7.25
2022-11-06T10:24:38.373Z,8.55
2022-11-06T10:27:48.027Z,11.05
2022-11-06T10:30:59.970Z,9.30
2022-11-06T10:37:12.705Z,10.63
2022-11-06T10:40:19.503Z,8.20
2022-11-06T10:43:28.401Z,9.43
2022-11-06T10:46:35.880Z,8.15
2022-11-06T10:49:45.654Z,9.73
2022-11-06T10:52:54.674Z,8.52
2022-11-06T10:56:28.747Z,6.45
2022-11-06T10:59:33.129Z,8.70
2022-11-06T11:02:40.620Z,11.30
2022-11-06T11:05:44.664Z,7.88
2022-11-06T11:08:48.863Z,7.07
2022-11-06T11:11:51.362Z,9.48
2022-11-06T11:15:13.651Z,7.10
2022-11-06T11:18:23.019Z,10.30
2022-11-06T11:21:27.809Z,9.63
2022-11-06T11:24:30.643Z,8.30
2022-11-06T11:27:38.309Z,7.72
2022-11-06T11:30:42.158Z,8.82
2022-11-06T11:33:51.893Z,8.05
2022-11-06T11:36:58.117Z,5.75
2022-11-06T11:40:20.817Z,7.30
2022-11-06T11:43:26.186Z,8.13
2022-11-06T11:46:29.981Z,6.53
2022-11-06T11:49:34.025Z,7.25
2022-11-06T11:52:42.668Z,7.80
2022-11-06T11:55:48.963Z,5.47
2022-11-06T11:58:54.281Z,7.72
2022-11-06T12:02:02.240Z,6.38
2022-11-06T12:05:10.344Z,7.00
2022-11-06T12:08:22.762Z,6.97
2022-11-06T12:11:27.442Z,7.63
2022-11-06T12:14:34.064Z,6.90
2022-11-06T12:17:41.533Z,5.63
2022-11-06T12:20:51.599Z,5.78
2022-11-06T12:23:58.707Z,6.20
2022-11-06T12:27:05.738Z,5.50
2022-11-06T12:30:12.282Z,6.75
2022-11-06T12:33:20.302Z,8.15
2022-11-06T12:36:29.302Z,7.00
2022-11-06T12:39:35.519Z,8.38
2022-11-06T12:42:38.858Z,5.03
2022-11-06T12:46:08.491Z,8.18
2022-11-06T12:49:23.524Z,6.70
2022-11-06T12:52:38.559Z,6.15
2022-11-06T12:55:44.802Z,6.00
2022-11-06T12:59:06.594Z,5.40
2022-11-06T13:02:25.583Z,7.72
2022-11-06T13:05:34.660Z,6.70
2022-11-06T13:08:46.712Z,4.53
2022-11-06T13:11:55.026Z,7.68
2022-11-06T13:15:12.313Z,6.07
2022-11-06T13:18:19.821Z,7.90
2022-11-06T13:21:31.847Z,6.68
2022-11-06T13:24:38.772Z,8.73
2022-11-06T13:27:48.557Z,9.23
2022-11-06T13:30:52.865Z,4.95
2022-11-06T13:33:59.505Z,8.10
2022-11-06T13:37:07.264Z,7.18
2022-11-06T13:40:22.595Z,6.15
2022-11-06T13:43:29.829Z,9.77
2022-11-06T13:46:40.596Z,5.40
2022-11-06T13:49:49.054Z,6.35
2022-11-06T13:52:59.447Z,5.72
2022-11-06T13:56:15.150Z,6.85
2022-11-06T13:59:55.582Z,8.75
2022-11-06T14:03:30.906Z,5.85
2022-11-06T14:06:36.026Z,7.75
2022-11-06T14:09:45.217Z,6.93
2022-11-06T14:12:49.069Z,5.88
2022-11-06T14:16:00.846Z,4.43
2022-11-06T14:19:08.279Z,7.90
2022-11-06T14:22:25.630Z,5.63
2022-11-06T14:26:00.302Z,5.13
2022-11-06T14:29:37.043Z,4.75
2022-11-06T14:32:46.051Z,5.93
2022-11-06T14:35:53.615Z,7.43
2022-11-06T14:38:57.303Z,6.35
2022-11-06T14:42:03.328Z,8.10
2022-11-06T14:45:14.386Z,9.18
2022-11-06T14:48:28.007Z,4.27
2022-11-06T14:51:31.349Z,5.97
2022-11-06T14:54:40.540Z,6.65
2022-11-06T14:57:47.963Z,6.30
2022-11-06T15:00:55.234Z,7.25
2022-11-06T15:04:03.050Z,7.10
2022-11-06T15:07:10.772Z,4.57
2022-11-06T15:10:47.393Z,4.40
2022-11-06T15:13:51.973Z,4.85
2022-11-06T15:17:04.037Z,4.03
2022-11-06T15:20:18.638Z,7.88
2022-11-06T15:23:28.400Z,7.63
2022-11-06T15:26:42.365Z,5.68
2022-11-06T15:29:49.825Z,7.78
2022-11-06T15:32:54.917Z,4.38
2022-11-06T15:36:03.193Z,7.70
2022-11-06T15:39:24.977Z,8.38
2022-11-06T15:42:30.977Z,5.85
2022-11-06T15:45:34.901Z,6.63
2022-11-06T15:48:37.631Z,6.72
2022-11-06T15:51:41.111Z,7.50
2022-11-06T15:54:44.402Z,5.80
2022-11-06T15:57:46.918Z,6.07
2022-11-06T16:00:50.868Z,4.75
2022-11-06T16:03:55.668Z,4.55
2022-11-06T16:06:58.400Z,6.18
2022-11-06T16:10:01.126Z,5.72
2022-11-06T16:13:05.247Z,4.53
2022-11-06T16:16:33.846Z,6.00
2022-11-06T16:19:39.988Z,5.53
2022-11-06T16:22:43.085Z,6.53
2022-11-06T16:25:46.348Z,6.78
2022-11-06T16:28:51.232Z,6.85
2022-11-06T16:32:03.335Z,6.45
2022-11-06T16:35:31.304Z,4.35
2022-11-06T16:38:43.442Z,6.93
2022-11-06T16:42:01.587Z,5.07
2022-11-06T16:45:17.761Z,6.18
2022-11-06T16:48:35.778Z,4.38
2022-11-06T16:51:38.591Z,5.80
2022-11-06T16:54:41.111Z,5.40
2022-11-06T16:57:46.058Z,5.97
2022-11-06T17:00:58.859Z,6.13
2022-11-06T17:04:05.293Z,4.03
2022-11-06T17:07:20.824Z,9.65
2022-11-06T17:10:37.269Z,5.53
2022-11-06T17:13:42.288Z,5.68
2022-11-06T17:16:50.565Z,4.47
2022-11-06T17:19:54.702Z,4.50
2022-11-06T17:22:57.173Z,7.05
2022-11-06T17:26:03.041Z,5.18
2022-11-06T17:29:06.081Z,5.57
2022-11-06T17:32:08.530Z,5.00
2022-11-06T17:35:12.334Z,7.07
2022-11-06T17:38:15.778Z,7.07
2022-11-06T17:41:29.779Z,5.07
2022-11-06T17:44:32.489Z,7.05
2022-11-06T17:47:35.032Z,4.93
2022-11-06T17:50:52.821Z,6.15
2022-11-06T17:53:55.267Z,6.05
2022-11-06T17:56:59.715Z,4.70
2022-11-06T18:00:02.209Z,7.78
2022-11-06T18:03:05.231Z,4.82
2022-11-06T18:06:11.609Z,6.50
2022-11-06T18:09:14.769Z,9.88
2022-11-06T18:12:19.250Z,4.93
2022-11-06T18:15:21.696Z,7.25
2022-11-06T18:18:24.571Z,4.65
2022-11-06T18:21:28.550Z,6.55
2022-11-06T18:24:31.042Z,3.85
2022-11-06T18:27:33.517Z,5.90
2022-11-06T18:30:35.976Z,7.35
2022-11-06T18:33:38.522Z,8.68
2022-11-06T18:36:42.323Z,5.40
2022-11-06T18:39:44.902Z,5.63
2022-11-06T18:42:47.360Z,6.88
2022-11-06T18:45:50.446Z,8.13
2022-11-06T18:48:53.068Z,5.07
2022-11-06T18:51:56.896Z,10.43
2022-11-06T18:55:01.003Z,5.82
2022-11-06T18:58:03.634Z,5.70
2022-11-06T19:01:07.080Z,5.18
2022-11-06T19:04:10.955Z,6.63
2022-11-06T19:07:18.429Z,4.82
2022-11-06T19:10:20.906Z,6.05
2022-11-06T19:13:23.608Z,6.13
2022-11-06T19:16:26.323Z,7.57
2022-11-06T19:19:28.958Z,7.30
2022-11-06T19:22:33.870Z,7.13
2022-11-06T19:25:36.314Z,6.75
2022-11-06T19:28:40.283Z,7.88
2022-11-06T19:31:43.036Z,6.15
2022-11-06T19:34:45.504Z,8.63
2022-11-06T19:37:49.372Z,7.68
2022-11-06T19:40:56.157Z,7.95
2022-11-06T19:43:58.791Z,6.60
2022-11-06T19:47:01.286Z,7.50
2022-11-06T19:50:05.095Z,7.35
2022-11-06T19:53:08.896Z,8.73
2022-11-06T19:56:16.448Z,8.88
2022-11-06T19:59:19.168Z,8.40
2022-11-06T20:02:21.831Z,9.13
2022-11-06T20:05:24.431Z,9.80
2022-11-06T20:08:28.253Z,11.48
2022-11-06T20:11:30.713Z,10.10
2022-11-06T20:14:33.316Z,10.95
2022-11-06T20:17:35.805Z,7.93
2022-11-06T20:20:38.320Z,13.60
2022-11-06T20:23:42.162Z,8.93
2022-11-06T20:26:44.681Z,9.95
2022-11-06T20:29:47.149Z,11.43
2022-11-06T20:32:49.759Z,9.82
2022-11-06T20:35:52.315Z,13.98
2022-11-06T20:38:59.014Z,10.48
2022-11-06T20:42:01.462Z,13.07
2022-11-06T20:45:04.181Z,12.32
2022-11-06T20:48:09.079Z,12.82
2022-11-06T20:51:14.538Z,14.80
2022-11-06T20:54:18.614Z,13.82
2022-11-06T20:57:21.080Z,12.05
2022-11-06T21:00:23.601Z,13.00
2022-11-06T21:03:26.051Z,14.88
2022-11-06T21:06:29.953Z,11.95
2022-11-06T21:09:33.788Z,11.35
2022-11-06T21:12:36.238Z,16.23
2022-11-06T21:15:38.730Z,14.35
2022-11-06T21:18:42.011Z,14.05
2022-11-06T21:21:44.550Z,14.23
2022-11-06T21:24:48.334Z,15.32
2022-11-06T21:27:50.769Z,13.00
2022-11-06T21:30:53.732Z,12.88
2022-11-06T21:33:58.686Z,12.55
2022-11-06T21:37:02.817Z,12.18
2022-11-06T21:40:09.650Z,15.25
2022-11-06T21:43:12.470Z,13.05
2022-11-06T21:46:15.684Z,12.10
2022-11-06T21:49:18.346Z,13.85
2022-11-06T21:52:39.086Z,14.13
2022-11-06T21:56:01.843Z,13.13
2022-11-06T21:59:05.962Z,13.18
2022-11-06T22:02:10.254Z,13.38
2022-11-06T22:05:12.873Z,12.75
2022-11-06T22:08:15.608Z,13.35
2022-11-06T22:11:22.077Z,13.35
2022-11-06T22:14:24.700Z,13.82
2022-11-06T22:17:27.273Z,16.20
2022-11-06T22:20:29.784Z,17.27
2022-11-06T22:23:32.443Z,18.75
2022-11-06T22:26:37.749Z,16.45
2022-11-06T22:29:40.329Z,17.05
2022-11-06T22:32:42.964Z,18.63
2022-11-06T22:35:45.441Z,16.13
2022-11-06T22:38:48.759Z,16.25
2022-11-06T22:41:52.767Z,17.75
2022-11-06T22:44:55.302Z,15.10
2022-11-06T22:47:58.122Z,17.60
2022-11-06T22:51:02.958Z,15.90
2022-11-06T22:54:06.056Z,15.80
2022-11-06T22:57:10.039Z,17.73
2022-11-06T23:00:14.081Z,18.98
2022-11-06T23:03:16.902Z,16.73
2022-11-06T23:06:19.623Z,15.10
2022-11-06T23:09:22.085Z,18.13
2022-11-06T23:12:25.864Z,15.43
2022-11-06T23:15:28.353Z,16.30
2022-11-06T23:18:30.853Z,18.63
2022-11-06T23:21:33.317Z,17.35
2022-11-06T23:24:35.812Z,16.90
2022-11-06T23:27:43.284Z,20.83
2022-11-06T23:30:48.113Z,15.20
2022-11-06T23:33:50.862Z,19.48
2022-11-06T23:36:53.336Z,16.85
2022-11-06T23:39:55.800Z,15.82
2022-11-06T23:42:59.601Z,19.63
2022-11-06T23:46:01.103Z,19.05
2022-11-06T23:49:03.671Z,19.20
2022-11-06T23:52:06.343Z,16.48
2022-11-06T23:55:09.514Z,18.05
2022-11-06T23:58:13.302Z,20.95
